createdAt,value
2022-11-22T00:03:30.805Z,5.20
2022-11-22T00:09:01.864Z,5.45
2022-11-22T00:14:33.068Z,3.83
2022-11-22T00:20:06.131Z,4.43
2022-11-22T00:25:37.023Z,4.68
2022-11-22T00:31:07.958Z,5.95
2022-11-22T00:36:39.286Z,5.13
2022-11-22T00:42:11.172Z,6.43
2022-11-22T00:47:42.274Z,5.43
2022-11-22T00:53:13.358Z,5.70
2022-11-22T00:58:44.623Z,4.18
2022-11-22T01:04:15.568Z,4.78
2022-11-22T01:09:46.614Z,5.82
2022-11-22T01:15:18.240Z,6.60
2022-11-22T01:20:49.447Z,4.93
2022-11-22T01:26:20.645Z,6.65
2022-11-22T01:31:51.727Z,5.55
2022-11-22T01:37:23.261Z,5.22
2022-11-22T01:42:59.933Z,5.40
2022-11-22T01:48:56.436Z,6.25
2022-11-22T01:54:30.531Z,5.18
2022-11-22T02:00:06.668Z,5.28
2022-11-22T02:05:37.977Z,4.53
2022-11-22T02:11:10.100Z,5.13
2022-11-22T02:16:42.160Z,5.93
2022-11-22T02:22:34.332Z,5.13
2022-11-22T02:28:05.655Z,3.97
2022-11-22T02:33:36.887Z,4.70
2022-11-22T02:39:10.191Z,4.63
2022-11-22T02:44:41.839Z,5.30
2022-11-22T02:50:12.954Z,5.30
2022-11-22T02:55:44.152Z,2.97
2022-11-22T03:01:15.410Z,5.05
2022-11-22T03:06:46.507Z,4.13
2022-11-22T03:12:17.818Z,3.85
2022-11-22T03:17:49.267Z,4.90
2022-11-22T03:23:20.177Z,7.03
2022-11-22T03:28:51.485Z,4.72
2022-11-22T03:34:22.615Z,3.78
2022-11-22T03:39:53.963Z,3.75
2022-11-22T03:45:25.170Z,4.25
2022-11-22T03:51:04.821Z,4.70
2022-11-22T03:56:35.970Z,3.63
2022-11-22T04:02:07.214Z,3.30
2022-11-22T04:07:38.525Z,5.00
2022-11-22T04:13:09.930Z,3.35
2022-11-22T04:18:41.180Z,4.15
2022-11-22T04:24:31.137Z,3.55
2022-11-22T04:30:02.805Z,5.47
2022-11-22T04:35:33.976Z,4.63
2022-11-22T04:41:04.923Z,4.65
2022-11-22T04:46:36.101Z,3.78
2022-11-22T04:52:26.257Z,3.58
2022-11-22T04:57:59.908Z,5.93
2022-11-22T05:03:31.258Z,5.10
2022-11-22T05:09:02.414Z,4.25
2022-11-22T05:14:33.708Z,5.15
2022-11-22T05:20:09.455Z,5.15
2022-11-22T05:25:42.132Z,4.97
2022-11-22T05:31:16.780Z,5.82
2022-11-22T05:36:47.756Z,5.35
2022-11-22T05:42:19.463Z,5.03
2022-11-22T05:47:50.433Z,6.60
2022-11-22T05:53:21.738Z,5.75
2022-11-22T05:58:53.645Z,5.40
2022-11-22T06:04:25.195Z,5.20
2022-11-22T06:09:56.344Z,6.55
2022-11-22T06:15:27.552Z,5.97
2022-11-22T06:21:04.218Z,6.72
2022-11-22T06:26:39.262Z,5.50
2022-11-22T06:32:10.707Z,6.03
2022-11-22T06:37:41.748Z,6.28
2022-11-22T06:43:12.968Z,5.70
2022-11-22T06:48:44.366Z,6.65
2022-11-22T06:54:15.631Z,5.63
2022-11-22T06:59:46.986Z,7.00
2022-11-22T07:05:25.714Z,8.10
2022-11-22T07:11:05.662Z,8.00
2022-11-22T07:16:37.968Z,6.00
2022-11-22T07:22:09.472Z,6.65
2022-11-22T07:27:40.414Z,5.32
2022-11-22T07:33:11.735Z,6.07
2022-11-22T07:38:43.197Z,7.30
2022-11-22T07:44:14.083Z,7.45
2022-11-22T07:49:45.487Z,6.28
2022-11-22T07:55:16.921Z,6.72
2022-11-22T08:00:47.977Z,6.70
2022-11-22T08:06:19.216Z,7.32
2022-11-22T08:11:50.413Z,6.75
2022-11-22T08:17:21.702Z,7.03
2022-11-22T08:22:53.099Z,5.63
2022-11-22T08:28:24.320Z,6.05
2022-11-22T08:33:55.429Z,7.00
2022-11-22T08:39:26.442Z,7.53
2022-11-22T08:44:57.765Z,7.38
2022-11-22T08:50:29.164Z,7.10
2022-11-22T08:56:01.534Z,6.53
2022-11-22T09:01:32.966Z,6.20
2022-11-22T09:12:56.831Z,7.22
2022-11-22T09:18:27.798Z,6.63
2022-11-22T09:23:59.060Z,6.32
2022-11-22T09:29:30.573Z,6.32
2022-11-22T09:35:01.708Z,8.20
2022-11-22T09:40:32.803Z,6.38
2022-11-22T09:46:23.251Z,7.85
2022-11-22T09:52:03.085Z,6.03
2022-11-22T09:57:38.981Z,6.47
2022-11-22T10:03:53.539Z,6.07
2022-11-22T10:09:33.923Z,7.40
2022-11-22T10:15:23.611Z,6.80
2022-11-22T10:20:54.410Z,6.18
2022-11-22T10:26:28.045Z,7.60
2022-11-22T10:32:11.585Z,6.97
2022-11-22T10:37:48.589Z,7.73
2022-11-22T10:43:37.418Z,8.07
2022-11-22T10:49:46.405Z,6.95
2022-11-22T10:55:25.886Z,10.52
2022-11-22T11:01:20.698Z,6.88
2022-11-22T11:12:47.503Z,7.45
2022-11-22T11:18:23.001Z,6.20
2022-11-22T11:23:54.470Z,5.68
2022-11-22T11:29:37.690Z,6.72
2022-11-22T11:35:14.735Z,5.68
2022-11-22T11:40:45.838Z,6.30
2022-11-22T11:46:41.402Z,7.07
2022-11-22T11:52:19.687Z,5.55
2022-11-22T11:57:52.572Z,6.00
2022-11-22T12:03:25.570Z,6.43
2022-11-22T12:08:58.130Z,7.05
2022-11-22T12:14:48.814Z,5.90
2022-11-22T12:20:25.693Z,7.30
2022-11-22T12:25:57.095Z,6.43
2022-11-22T12:31:38.985Z,6.15
2022-11-22T12:37:17.265Z,6.13
2022-11-22T12:42:51.894Z,6.00
2022-11-22T12:48:34.959Z,5.25
2022-11-22T12:54:12.788Z,6.45
2022-11-22T12:59:45.143Z,5.32
2022-11-22T13:05:23.018Z,6.63
2022-11-22T13:11:03.869Z,6.40
2022-11-22T13:16:35.235Z,6.82
2022-11-22T13:22:43.778Z,4.97
2022-11-22T13:28:18.083Z,6.10
2022-11-22T13:33:55.118Z,6.95
2022-11-22T13:39:26.428Z,6.90
2022-11-22T13:44:57.513Z,6.18
2022-11-22T13:50:40.889Z,6.78
2022-11-22T13:56:20.726Z,6.35
2022-11-22T14:01:52.293Z,6.65
2022-11-22T14:07:33.999Z,7.25
2022-11-22T14:13:20.679Z,7.65
2022-11-22T14:19:07.663Z,8.20
2022-11-22T14:24:47.701Z,7.82
2022-11-22T14:30:23.554Z,7.57
2022-11-22T14:36:06.771Z,7.78
2022-11-22T14:41:37.729Z,7.97
2022-11-22T14:47:13.663Z,9.07
2022-11-22T14:52:47.116Z,8.32
2022-11-22T14:58:28.435Z,7.72
2022-11-22T15:09:12.288Z,8.40
2022-11-22T15:10:26.323Z,9.43
2022-11-22T15:57:54.825Z,7.10
2022-11-22T16:03:26.610Z,9.00
2022-11-22T16:09:02.927Z,7.75
2022-11-22T16:14:44.836Z,8.35
2022-11-22T16:20:26.670Z,7.38
2022-11-22T16:26:17.649Z,8.73
2022-11-22T16:31:48.846Z,7.28
2022-11-22T16:37:37.789Z,8.50
2022-11-22T16:43:18.132Z,8.18
2022-11-22T16:48:49.572Z,8.75
2022-11-22T16:54:21.206Z,8.00
2022-11-22T16:59:54.566Z,8.73
2022-11-22T17:05:25.397Z,9.30
2022-11-22T17:10:56.576Z,9.38
2022-11-22T17:16:27.897Z,8.73
2022-11-22T17:22:00.967Z,8.95
2022-11-22T17:27:32.471Z,10.97
2022-11-22T17:33:03.456Z,14.05
2022-11-22T17:38:34.497Z,9.98
2022-11-22T17:44:05.938Z,9.55
2022-11-22T17:49:36.942Z,10.23
2022-11-22T17:55:13.070Z,10.57
2022-11-22T18:00:45.782Z,10.80
2022-11-22T18:06:18.306Z,11.95
2022-11-22T18:11:49.452Z,12.27
2022-11-22T18:17:21.388Z,14.38
2022-11-22T18:22:52.465Z,12.25
2022-11-22T18:28:23.690Z,9.63
2022-11-22T18:33:54.886Z,10.07
2022-11-22T18:39:26.174Z,10.52
2022-11-22T18:44:57.139Z,12.68
2022-11-22T18:50:28.548Z,13.23
2022-11-22T18:56:04.476Z,12.23
2022-11-22T19:01:38.246Z,11.55
2022-11-22T19:07:10.166Z,11.52
2022-11-22T19:12:41.431Z,12.07
2022-11-22T19:18:13.447Z,10.25
2022-11-22T19:23:44.850Z,10.77
2022-11-22T19:29:16.636Z,12.00
2022-11-22T19:34:47.619Z,13.85
2022-11-22T19:40:18.840Z,11.00
2022-11-22T19:45:50.327Z,13.52
2022-11-22T19:51:22.407Z,10.55
2022-11-22T19:56:53.627Z,14.73
2022-11-22T20:02:24.635Z,11.55
2022-11-22T20:07:55.853Z,12.38
2022-11-22T20:13:26.863Z,13.27
2022-11-22T20:18:59.971Z,12.80
2022-11-22T20:24:31.216Z,15.37
2022-11-22T20:30:02.610Z,12.55
2022-11-22T20:35:33.806Z,14.77
2022-11-22T20:41:06.205Z,12.85
2022-11-22T20:46:37.997Z,11.77
2022-11-22T20:52:10.509Z,13.45
2022-11-22T20:57:41.432Z,13.18
2022-11-22T21:03:12.734Z,12.63
2022-11-22T21:08:45.347Z,12.88
2022-11-22T21:14:16.438Z,12.30
2022-11-22T21:19:47.534Z,11.85
2022-11-22T21:25:18.765Z,14.27
2022-11-22T21:30:58.376Z,13.20
2022-11-22T21:36:29.677Z,13.02
2022-11-22T21:42:00.726Z,11.80
2022-11-22T21:47:32.533Z,12.43
2022-11-22T21:53:03.878Z,12.55
2022-11-22T21:58:34.848Z,10.50
2022-11-22T22:04:05.762Z,13.23
2022-11-22T22:09:36.946Z,12.38
2022-11-22T22:15:10.843Z,11.63
2022-11-22T22:26:16.816Z,11.95
2022-11-22T22:31:48.034Z,11.23
2022-11-22T22:37:19.389Z,11.43
2022-11-22T22:42:50.382Z,11.60
2022-11-22T22:48:22.101Z,11.85
2022-11-22T22:53:53.147Z,10.80
2022-11-22T22:59:24.329Z,13.98
2022-11-22T23:04:55.523Z,11.68
2022-11-22T23:10:26.530Z,10.52
2022-11-22T23:16:03.040Z,9.82
2022-11-22T23:21:34.313Z,12.82
2022-11-22T23:27:05.389Z,11.95
2022-11-22T23:32:36.530Z,9.50
2022-11-22T23:38:07.658Z,11.38
2022-11-22T23:43:39.167Z,12.88
2022-11-22T23:49:10.859Z,11.88
2022-11-22T23:54:41.810Z,10.35
